createdAt,value
2018-08-12T00:00:25.388Z,97077.81
2018-08-12T00:03:50.032Z,97076.05
2018-08-12T00:07:14.824Z,97081.45
2018-08-12T00:10:39.473Z,97084.20
2018-08-12T00:14:04.249Z,97086.16
2018-08-12T00:17:29.020Z,97084.98
2018-08-12T00:20:53.744Z,97073.93
2018-08-12T00:24:18.481Z,97075.74
2018-08-12T00:27:43.145Z,97074.09
2018-08-12T00:31:08.085Z,97068.61
2018-08-12T00:34:32.771Z,97069.95
2018-08-12T00:37:57.454Z,97057.50
2018-08-12T00:41:22.116Z,97056.72
2018-08-12T00:44:46.797Z,97050.92
2018-08-12T00:48:11.550Z,97052.57
2018-08-12T00:51:36.156Z,97043.87
2018-08-12T00:55:00.891Z,97039.47
2018-08-12T00:58:25.666Z,97044.08
2018-08-12T01:01:50.369Z,97045.20
2018-08-12T01:05:16.848Z,97041.89
2018-08-12T01:08:41.534Z,97042.74
2018-08-12T01:12:06.296Z,97041.30
2018-08-12T01:15:30.994Z,97037.50
2018-08-12T01:18:55.720Z,97036.69
2018-08-12T01:22:20.461Z,97035.53
2018-08-12T01:25:45.267Z,97025.45
2018-08-12T01:29:09.947Z,97026.75
2018-08-12T01:32:34.810Z,97022.40
2018-08-12T01:35:59.894Z,97023.73
2018-08-12T01:39:24.510Z,97019.31
2018-08-12T01:42:49.183Z,97018.44
2018-08-12T01:46:13.899Z,97016.20
2018-08-12T01:49:38.667Z,97016.71
2018-08-12T01:53:03.329Z,97019.37
2018-08-12T01:56:28.009Z,97017.41
2018-08-12T01:59:52.613Z,97005.04
2018-08-12T02:03:17.326Z,97008.70
2018-08-12T02:06:41.963Z,97003.17
2018-08-12T02:10:08.261Z,96998.20
2018-08-12T02:13:32.917Z,96997.27
2018-08-12T02:16:57.557Z,96997.98
2018-08-12T02:20:22.228Z,96992.91
2018-08-12T02:23:46.911Z,96994.86
2018-08-12T02:27:11.537Z,96982.33
2018-08-12T02:30:36.185Z,96981.81
2018-08-12T02:34:00.832Z,96977.34
2018-08-12T02:37:25.446Z,96973.89
2018-08-12T02:40:50.131Z,96974.39
2018-08-12T02:44:14.805Z,96966.50
2018-08-12T02:47:39.523Z,96961.98
2018-08-12T02:51:04.298Z,96954.05
2018-08-12T02:54:29.043Z,96960.45
2018-08-12T02:57:53.803Z,96952.91
2018-08-12T03:01:18.417Z,96951.86
2018-08-12T03:04:43.093Z,96945.02
2018-08-12T03:08:07.773Z,96939.72
2018-08-12T03:11:32.468Z,96936.19
2018-08-12T03:14:57.142Z,96934.98
2018-08-12T03:18:21.856Z,96931.34
2018-08-12T03:21:46.516Z,96925.30
2018-08-12T03:25:11.968Z,96927.70
2018-08-12T03:28:36.631Z,96921.43
2018-08-12T03:32:01.270Z,96922.42
2018-08-12T03:35:25.922Z,96913.96
2018-08-12T03:38:50.577Z,96916.46
2018-08-12T03:42:15.291Z,96910.93
2018-08-12T03:45:39.955Z,96914.56
2018-08-12T03:49:05.595Z,96914.92
2018-08-12T03:52:30.229Z,96909.48
2018-08-12T03:55:54.909Z,96910.02
2018-08-12T03:59:19.579Z,96905.14
2018-08-12T04:02:44.632Z,96906.81
2018-08-12T04:06:09.289Z,96912.08
2018-08-12T04:09:33.992Z,96912.25
2018-08-12T04:12:58.628Z,96911.64
2018-08-12T04:16:23.281Z,96907.67
2018-08-12T04:19:47.943Z,96903.62
2018-08-12T04:23:12.541Z,96902.90
2018-08-12T04:26:37.172Z,96906.66
2018-08-12T04:30:01.884Z,96904.56
2018-08-12T04:33:26.593Z,96900.91
2018-08-12T04:36:51.263Z,96906.33
2018-08-12T04:40:15.998Z,96898.02
2018-08-12T04:43:40.638Z,96898.61
2018-08-12T04:47:05.335Z,96899.06
2018-08-12T04:50:30.057Z,96899.09
2018-08-12T04:53:54.731Z,96897.32
2018-08-12T04:57:19.439Z,96902.97
2018-08-12T05:00:44.137Z,96898.80
2018-08-12T05:04:08.801Z,96899.03
2018-08-12T05:07:33.445Z,96894.57
2018-08-12T05:14:35.016Z,96883.13
2018-08-12T05:17:59.777Z,96880.84
2018-08-12T05:21:24.519Z,96879.65
2018-08-12T05:24:49.183Z,96878.02
2018-08-12T05:28:13.827Z,96869.53
2018-08-12T05:31:38.469Z,96869.72
2018-08-12T05:35:03.207Z,96878.48
2018-08-12T05:38:27.887Z,96877.07
2018-08-12T05:41:52.606Z,96867.48
2018-08-12T05:45:17.310Z,96872.16
2018-08-12T05:48:41.957Z,96864.84
2018-08-12T05:52:06.687Z,96868.95
2018-08-12T05:55:31.319Z,96869.83
2018-08-12T05:58:56.016Z,96873.45
2018-08-12T06:02:20.693Z,96869.78
2018-08-12T06:05:45.433Z,96868.70
2018-08-12T06:09:11.043Z,96865.70
2018-08-12T06:12:35.819Z,96859.83
2018-08-12T06:16:00.520Z,96853.97
2018-08-12T06:19:25.240Z,96851.20
2018-08-12T06:22:49.931Z,96850.62
2018-08-12T06:26:14.568Z,96856.17
2018-08-12T06:29:39.305Z,96849.02
2018-08-12T06:33:04.065Z,96851.84
2018-08-12T06:36:28.754Z,96846.33
2018-08-12T06:39:53.434Z,96857.66
2018-08-12T06:43:18.096Z,96855.50
2018-08-12T06:46:42.767Z,96847.23
2018-08-12T06:50:08.977Z,96849.99
2018-08-12T06:53:33.637Z,96847.41
2018-08-12T06:56:58.317Z,96843.84
2018-08-12T07:00:23.071Z,96845.36
2018-08-12T07:03:47.728Z,96848.30
2018-08-12T07:07:12.447Z,96855.77
2018-08-12T07:10:37.080Z,96850.75
2018-08-12T07:14:01.802Z,96845.69
2018-08-12T07:17:26.525Z,96847.20
2018-08-12T07:20:51.235Z,96853.01
2018-08-12T07:24:15.916Z,96846.80
2018-08-12T07:27:41.427Z,96848.19
2018-08-12T07:31:06.094Z,96836.50
2018-08-12T07:34:30.767Z,96831.61
2018-08-12T07:37:55.462Z,96824.49
2018-08-12T07:41:20.212Z,96826.66
2018-08-12T07:44:44.931Z,96830.44
2018-08-12T07:48:09.700Z,96829.23
2018-08-12T07:51:34.544Z,96827.44
2018-08-12T07:54:59.366Z,96823.42
2018-08-12T07:58:24.032Z,96823.30
2018-08-12T08:01:48.667Z,96816.36
2018-08-12T08:05:13.299Z,96823.73
2018-08-12T08:08:38.074Z,96826.06
2018-08-12T08:12:02.794Z,96828.33
2018-08-12T08:15:27.560Z,96821.81
2018-08-12T08:18:52.260Z,96818.55
2018-08-12T08:22:16.999Z,96825.16
2018-08-12T08:25:41.867Z,96814.68
2018-08-12T08:29:06.912Z,96817.19
2018-08-12T08:32:31.577Z,96816.28
2018-08-12T08:35:56.293Z,96811.22
2018-08-12T08:39:21.104Z,96810.45
2018-08-12T08:42:46.141Z,96810.19
2018-08-12T08:46:10.874Z,96811.16
2018-08-12T08:49:35.595Z,96805.32
2018-08-12T08:53:00.267Z,96803.41
2018-08-12T08:56:25.032Z,96805.11
2018-08-12T08:59:49.784Z,96810.58
2018-08-12T09:03:14.466Z,96814.34
2018-08-12T09:06:39.124Z,96808.41
2018-08-12T09:10:03.938Z,96805.03
2018-08-12T09:13:28.701Z,96799.77
2018-08-12T09:16:53.439Z,96800.20
2018-08-12T09:20:20.394Z,96799.31
2018-08-12T09:23:45.335Z,96801.72
2018-08-12T09:27:09.998Z,96793.62
2018-08-12T09:30:34.700Z,96788.19
2018-08-12T09:33:59.401Z,96794.34
2018-08-12T09:37:24.083Z,96792.50
2018-08-12T09:40:48.866Z,96789.75
2018-08-12T09:44:13.547Z,96789.63
2018-08-12T09:47:38.554Z,96790.67
2018-08-12T09:51:03.338Z,96794.34
2018-08-12T09:54:27.960Z,96786.70
2018-08-12T09:57:52.677Z,96784.73
2018-08-12T10:01:17.401Z,96778.33
2018-08-12T10:04:42.148Z,96774.28
2018-08-12T10:08:06.842Z,96774.94
2018-08-12T10:11:31.529Z,96767.59
2018-08-12T10:14:56.252Z,96770.52
2018-08-12T10:18:21.071Z,96775.11
2018-08-12T10:21:45.802Z,96768.11
2018-08-12T10:25:10.891Z,96761.84
2018-08-12T10:28:35.571Z,96757.88
2018-08-12T10:32:00.334Z,96756.39
2018-08-12T10:35:25.035Z,96752.82
2018-08-12T10:38:49.760Z,96744.34
2018-08-12T10:42:15.601Z,96745.19
2018-08-12T10:45:40.406Z,96735.95
2018-08-12T10:49:05.354Z,96734.58
2018-08-12T10:52:30.006Z,96723.95
2018-08-12T10:55:54.799Z,96715.73
2018-08-12T10:59:19.500Z,96711.20
2018-08-12T11:02:44.590Z,96710.14
2018-08-12T11:06:09.356Z,96705.84
2018-08-12T11:09:34.160Z,96693.37
2018-08-12T11:12:58.942Z,96695.17
2018-08-12T11:16:23.608Z,96691.60
2018-08-12T11:19:48.243Z,96695.92
2018-08-12T11:23:12.884Z,96691.73
2018-08-12T11:26:37.604Z,96691.15
2018-08-12T11:30:02.318Z,96683.31
2018-08-12T11:33:27.140Z,96675.51
2018-08-12T11:36:51.835Z,96667.48
2018-08-12T11:40:17.113Z,96663.27
2018-08-12T11:43:41.867Z,96673.55
2018-08-12T11:47:06.654Z,96659.78
2018-08-12T11:50:31.407Z,96651.83
2018-08-12T11:53:56.140Z,96652.56
2018-08-12T11:57:20.807Z,96646.58
2018-08-12T12:00:45.405Z,96648.81
2018-08-12T12:04:10.143Z,96642.08
2018-08-12T12:07:34.840Z,96639.63
2018-08-12T12:10:59.615Z,96630.55
2018-08-12T12:14:24.315Z,96631.92
2018-08-12T12:17:49.420Z,96619.74
2018-08-12T12:21:14.138Z,96617.86
2018-08-12T12:24:38.909Z,96616.47
2018-08-12T12:28:03.667Z,96616.96
2018-08-12T12:31:28.407Z,96614.23
2018-08-12T12:34:53.164Z,96613.40
2018-08-12T12:38:17.899Z,96610.31
2018-08-12T12:41:42.670Z,96608.05
2018-08-12T12:45:10.290Z,96604.14
2018-08-12T12:48:35.021Z,96601.22
2018-08-12T12:51:59.752Z,96601.03
2018-08-12T12:55:25.215Z,96588.06
2018-08-12T12:58:49.913Z,96590.20
2018-08-12T13:02:14.700Z,96583.18
2018-08-12T13:05:39.413Z,96582.20
2018-08-12T13:09:04.779Z,96571.85
2018-08-12T13:12:29.597Z,96574.52
2018-08-12T13:15:54.369Z,96570.36
2018-08-12T13:19:19.154Z,96564.95
2018-08-12T13:22:45.046Z,96561.48
2018-08-12T13:26:09.769Z,96563.60
2018-08-12T13:29:34.505Z,96553.92
2018-08-12T13:32:59.538Z,96555.31
2018-08-12T13:36:24.209Z,96546.69
2018-08-12T13:39:49.000Z,96542.75
2018-08-12T13:43:14.256Z,96538.69
2018-08-12T13:46:38.924Z,96541.75
2018-08-12T13:50:04.011Z,96535.80
2018-08-12T13:53:28.756Z,96518.59
2018-08-12T13:56:53.448Z,96518.77
2018-08-12T14:00:20.017Z,96524.81
2018-08-12T14:03:44.715Z,96505.16
2018-08-12T14:07:09.475Z,96493.39
2018-08-12T14:10:34.060Z,96487.06
2018-08-12T14:13:58.826Z,96486.77
2018-08-12T14:17:23.394Z,96483.03
2018-08-12T14:20:48.039Z,96469.59
2018-08-12T14:24:12.685Z,96469.89
2018-08-12T14:27:37.716Z,96468.25
2018-08-12T14:31:02.472Z,96472.87
2018-08-12T14:34:27.175Z,96465.66
2018-08-12T14:37:51.964Z,96456.87
2018-08-12T14:41:16.700Z,96449.95
2018-08-12T14:44:41.352Z,96449.08
2018-08-12T14:48:06.965Z,96440.84
2018-08-12T14:51:31.760Z,96432.95
2018-08-12T14:54:56.449Z,96441.66
2018-08-12T14:58:21.174Z,96429.06
2018-08-12T15:01:45.937Z,96419.95
2018-08-12T15:05:10.687Z,96427.36
2018-08-12T15:08:35.406Z,96417.49
2018-08-12T15:12:00.104Z,96416.89
2018-08-12T15:15:24.930Z,96418.70
2018-08-12T15:18:49.593Z,96416.98
2018-08-12T15:22:14.409Z,96411.06
2018-08-12T15:25:39.132Z,96405.00
2018-08-12T15:29:03.895Z,96403.98
2018-08-12T15:32:28.641Z,96407.17
2018-08-12T15:35:53.317Z,96408.02
2018-08-12T15:39:18.135Z,96409.42
2018-08-12T15:42:43.373Z,96404.00
2018-08-12T15:46:08.270Z,96400.27
2018-08-12T15:49:33.005Z,96395.66
2018-08-12T15:52:57.781Z,96397.02
2018-08-12T15:56:22.452Z,96394.53
2018-08-12T15:59:47.228Z,96384.36
2018-08-12T16:03:11.973Z,96388.34
2018-08-12T16:06:36.697Z,96376.12
2018-08-12T16:10:01.424Z,96383.80
2018-08-12T16:13:26.176Z,96378.02
2018-08-12T16:16:50.893Z,96373.84
2018-08-12T16:20:15.709Z,96372.44
2018-08-12T16:23:40.434Z,96365.27
2018-08-12T16:27:05.279Z,96361.84
2018-08-12T16:30:30.047Z,96363.79
2018-08-12T16:33:54.780Z,96357.63
2018-08-12T16:37:19.563Z,96355.85
2018-08-12T16:40:44.320Z,96358.42
2018-08-12T16:44:09.008Z,96348.63
2018-08-12T16:47:33.794Z,96344.77
2018-08-12T16:50:58.536Z,96339.05
2018-08-12T16:54:23.252Z,96338.66
2018-08-12T16:57:48.387Z,96338.31
2018-08-12T17:01:13.073Z,96334.94
2018-08-12T17:04:37.796Z,96338.84
2018-08-12T17:08:02.521Z,96332.52
2018-08-12T17:11:27.200Z,96335.19
2018-08-12T17:14:51.936Z,96327.73
2018-08-12T17:18:16.760Z,96328.94
2018-08-12T17:21:41.440Z,96329.84
2018-08-12T17:25:06.884Z,96324.84
2018-08-12T17:28:31.565Z,96323.12
2018-08-12T17:31:56.284Z,96321.75
2018-08-12T17:35:21.091Z,96322.25
2018-08-12T17:38:45.920Z,96326.91
2018-08-12T17:42:10.489Z,96321.72
2018-08-12T17:45:35.340Z,96323.88
2018-08-12T17:49:00.087Z,96319.33
2018-08-12T17:52:24.868Z,96321.89
2018-08-12T17:55:49.554Z,96316.45
2018-08-12T17:59:14.256Z,96314.40
2018-08-12T18:02:39.193Z,96315.92
2018-08-12T18:06:03.966Z,96314.00
2018-08-12T18:09:28.741Z,96311.21
2018-08-12T18:12:53.569Z,96309.81
2018-08-12T18:16:18.354Z,96314.98
2018-08-12T18:19:43.079Z,96319.89
2018-08-12T18:23:07.834Z,96313.91
2018-08-12T18:26:32.505Z,96315.08
2018-08-12T18:29:57.292Z,96311.20
2018-08-12T18:33:21.989Z,96315.86
2018-08-12T18:36:46.706Z,96310.53
2018-08-12T18:44:10.207Z,96309.89
2018-08-12T18:47:35.483Z,96313.75
2018-08-12T18:51:00.313Z,96313.80
2018-08-12T18:54:25.019Z,96315.14
2018-08-12T18:57:49.766Z,96307.77
2018-08-12T19:01:14.524Z,96306.58
2018-08-12T19:04:39.360Z,96310.34
2018-08-12T19:08:04.290Z,96309.73
2018-08-12T19:11:29.028Z,96321.25
2018-08-12T19:14:53.773Z,96321.81
2018-08-12T19:18:18.495Z,96319.56
2018-08-12T19:21:43.296Z,96321.58
2018-08-12T19:25:08.990Z,96326.28
2018-08-12T19:28:33.730Z,96327.31
2018-08-12T19:31:58.447Z,96327.69
2018-08-12T19:35:23.138Z,96325.41
2018-08-12T19:38:47.910Z,96318.14
2018-08-12T19:42:13.558Z,96318.63
2018-08-12T19:45:38.307Z,96325.50
2018-08-12T19:49:03.132Z,96313.63
2018-08-12T19:52:27.851Z,96311.64
2018-08-12T19:55:52.605Z,96315.58
2018-08-12T19:59:17.433Z,96312.27
2018-08-12T20:02:43.054Z,96313.42
2018-08-12T20:06:08.601Z,96312.92
2018-08-12T20:09:33.324Z,96308.65
2018-08-12T20:12:58.167Z,96312.09
2018-08-12T20:16:23.048Z,96307.47
2018-08-12T20:19:47.858Z,96313.07
2018-08-12T20:23:12.614Z,96315.24
2018-08-12T20:26:37.400Z,96313.76
2018-08-12T20:30:02.261Z,96318.53
2018-08-12T20:33:26.912Z,96312.58
2018-08-12T20:36:51.553Z,96309.45
2018-08-12T20:40:16.352Z,96315.40
2018-08-12T20:43:41.180Z,96313.15
2018-08-12T20:47:05.959Z,96308.94
2018-08-12T20:50:30.765Z,96315.84
2018-08-12T20:53:55.443Z,96319.28
2018-08-12T20:57:20.152Z,96316.04
2018-08-12T21:00:44.864Z,96313.50
2018-08-12T21:04:09.790Z,96318.95
2018-08-12T21:07:34.409Z,96322.91
2018-08-12T21:10:59.080Z,96319.92
2018-08-12T21:14:23.756Z,96312.00
2018-08-12T21:17:48.458Z,96315.80
2018-08-12T21:21:13.129Z,96307.55
2018-08-12T21:24:37.800Z,96314.13
2018-08-12T21:28:02.426Z,96315.80
2018-08-12T21:31:27.166Z,96321.06
2018-08-12T21:34:51.845Z,96318.27
2018-08-12T21:38:16.606Z,96329.67
2018-08-12T21:41:41.473Z,96327.84
2018-08-12T21:45:06.552Z,96335.08
2018-08-12T21:48:31.353Z,96326.64
2018-08-12T21:51:56.082Z,96326.79
2018-08-12T21:55:20.777Z,96327.89
2018-08-12T21:58:45.475Z,96325.53
2018-08-12T22:02:10.181Z,96327.02
2018-08-12T22:05:35.002Z,96329.63
2018-08-12T22:08:59.666Z,96331.12
2018-08-12T22:12:24.321Z,96332.44
2018-08-12T22:15:49.005Z,96330.98
2018-08-12T22:19:13.725Z,96324.34
2018-08-12T22:22:39.072Z,96326.19
2018-08-12T22:26:03.743Z,96325.53
2018-08-12T22:29:28.484Z,96318.01
2018-08-12T22:32:53.158Z,96313.02
2018-08-12T22:36:17.908Z,96310.03
2018-08-12T22:39:42.542Z,96302.81
2018-08-12T22:43:07.721Z,96307.78
2018-08-12T22:46:32.374Z,96309.23
2018-08-12T22:49:57.022Z,96301.79
2018-08-12T22:53:21.756Z,96293.77
2018-08-12T22:56:46.453Z,96296.89
2018-08-12T23:00:16.434Z,96288.44
2018-08-12T23:03:41.217Z,96284.08
2018-08-12T23:07:05.977Z,96285.74
2018-08-12T23:10:30.826Z,96284.58
2018-08-12T23:13:55.450Z,96271.88
2018-08-12T23:17:20.125Z,96274.98
2018-08-12T23:20:44.729Z,96274.88
2018-08-12T23:24:09.508Z,96275.27
2018-08-12T23:27:34.286Z,96269.28
2018-08-12T23:30:58.974Z,96257.33
2018-08-12T23:34:23.693Z,96259.69
2018-08-12T23:37:48.351Z,96253.55
2018-08-12T23:41:13.425Z,96257.03
2018-08-12T23:44:38.073Z,96253.55
2018-08-12T23:48:02.714Z,96253.54
2018-08-12T23:51:27.363Z,96246.56
2018-08-12T23:54:52.095Z,96241.42
2018-08-12T23:58:16.890Z,96239.02
